sensor_id;sensor_type;location;lat;lon;timestamp;P1;durP1;ratioP1;P2;durP2;ratioP2
5507;SDS011;2776;51.046;6.772;2023-12-22T00:01:00;0.97;;;0.47;;
5507;SDS011;2776;51.046;6.772;2023-12-22T00:03:27;2.37;;;0.20;;
5507;SDS011;2776;51.046;6.772;2023-12-22T00:05:53;2.53;;;0.40;;
5507;SDS011;2776;51.046;6.772;2023-12-22T00:08:21;1.50;;;0.43;;
5507;SDS011;2776;51.046;6.772;2023-12-22T00:10:48;0.87;;;0.60;;
5507;SDS011;2776;51.046;6.772;2023-12-22T00:13:15;4.33;;;0.30;;
5507;SDS011;2776;51.046;6.772;2023-12-22T00:15:42;0.73;;;0.23;;
5507;SDS011;2776;51.046;6.772;2023-12-22T00:18:09;1.23;;;0.30;;
5507;SDS011;2776;51.046;6.772;2023-12-22T00:20:35;4.47;;;0.67;;
5507;SDS011;2776;51.046;6.772;2023-12-22T00:23:02;1.40;;;0.50;;
5507;SDS011;2776;51.046;6.772;2023-12-22T00:25:30;5.50;;;1.00;;
5507;SDS011;2776;51.046;6.772;2023-12-22T00:27:57;2.60;;;0.57;;
5507;SDS011;2776;51.046;6.772;2023-12-22T00:30:24;2.50;;;0.67;;
5507;SDS011;2776;51.046;6.772;2023-12-22T00:32:50;2.07;;;0.57;;
5507;SDS011;2776;51.046;6.772;2023-12-22T00:35:18;2.53;;;0.93;;
5507;SDS011;2776;51.046;6.772;2023-12-22T00:37:44;2.17;;;0.57;;
5507;SDS011;2776;51.046;6.772;2023-12-22T00:40:11;2.90;;;0.67;;
5507;SDS011;2776;51.046;6.772;2023-12-22T00:42:40;0.40;;;0.40;;
5507;SDS011;2776;51.046;6.772;2023-12-22T00:45:06;2.80;;;0.50;;
5507;SDS011;2776;51.046;6.772;2023-12-22T00:47:34;4.40;;;0.77;;
5507;SDS011;2776;51.046;6.772;2023-12-22T00:50:01;5.10;;;0.60;;
5507;SDS011;2776;51.046;6.772;2023-12-22T00:52:27;2.43;;;0.30;;
5507;SDS011;2776;51.046;6.772;2023-12-22T00:54:54;10.33;;;0.70;;
5507;SDS011;2776;51.046;6.772;2023-12-22T00:57:21;5.17;;;0.80;;
5507;SDS011;2776;51.046;6.772;2023-12-22T00:59:49;1.27;;;0.43;;
5507;SDS011;2776;51.046;6.772;2023-12-22T01:02:16;0.80;;;0.47;;
5507;SDS011;2776;51.046;6.772;2023-12-22T01:04:43;2.37;;;0.77;;
5507;SDS011;2776;51.046;6.772;2023-12-22T01:07:10;2.43;;;0.93;;
5507;SDS011;2776;51.046;6.772;2023-12-22T01:09:37;0.60;;;0.40;;
5507;SDS011;2776;51.046;6.772;2023-12-22T01:12:04;3.80;;;0.47;;
5507;SDS011;2776;51.046;6.772;2023-12-22T01:14:31;2.87;;;0.60;;
5507;SDS011;2776;51.046;6.772;2023-12-22T01:17:00;6.13;;;1.00;;
5507;SDS011;2776;51.046;6.772;2023-12-22T01:19:26;4.67;;;0.60;;
5507;SDS011;2776;51.046;6.772;2023-12-22T01:21:53;3.53;;;0.60;;
5507;SDS011;2776;51.046;6.772;2023-12-22T01:24:20;7.10;;;0.87;;
5507;SDS011;2776;51.046;6.772;2023-12-22T01:26:46;1.33;;;0.40;;
5507;SDS011;2776;51.046;6.772;2023-12-22T01:29:13;1.57;;;0.70;;
5507;SDS011;2776;51.046;6.772;2023-12-22T01:31:40;1.50;;;0.83;;
5507;SDS011;2776;51.046;6.772;2023-12-22T01:34:08;0.40;;;0.27;;
5507;SDS011;2776;51.046;6.772;2023-12-22T01:36:34;1.87;;;0.47;;
5507;SDS011;2776;51.046;6.772;2023-12-22T01:39:01;2.40;;;1.23;;
5507;SDS011;2776;51.046;6.772;2023-12-22T01:41:28;1.30;;;0.53;;
5507;SDS011;2776;51.046;6.772;2023-12-22T01:43:55;2.33;;;0.77;;
5507;SDS011;2776;51.046;6.772;2023-12-22T01:46:21;2.90;;;0.83;;
5507;SDS011;2776;51.046;6.772;2023-12-22T01:48:48;5.77;;;0.77;;
5507;SDS011;2776;51.046;6.772;2023-12-22T01:51:16;2.30;;;0.87;;
5507;SDS011;2776;51.046;6.772;2023-12-22T01:53:44;2.40;;;0.67;;
5507;SDS011;2776;51.046;6.772;2023-12-22T01:56:11;2.17;;;0.60;;
5507;SDS011;2776;51.046;6.772;2023-12-22T01:58:38;1.60;;;0.73;;
5507;SDS011;2776;51.046;6.772;2023-12-22T02:01:05;2.67;;;0.53;;
5507;SDS011;2776;51.046;6.772;2023-12-22T02:03:33;3.40;;;0.90;;
5507;SDS011;2776;51.046;6.772;2023-12-22T02:06:01;2.90;;;0.50;;
5507;SDS011;2776;51.046;6.772;2023-12-22T02:08:30;1.27;;;0.60;;
5507;SDS011;2776;51.046;6.772;2023-12-22T02:10:59;2.40;;;0.93;;
5507;SDS011;2776;51.046;6.772;2023-12-22T02:13:25;2.10;;;0.53;;
5507;SDS011;2776;51.046;6.772;2023-12-22T02:15:54;1.20;;;0.67;;
5507;SDS011;2776;51.046;6.772;2023-12-22T02:18:30;1.00;;;0.27;;
5507;SDS011;2776;51.046;6.772;2023-12-22T02:21:00;8.83;;;1.07;;
5507;SDS011;2776;51.046;6.772;2023-12-22T02:23:28;1.73;;;0.23;;
5507;SDS011;2776;51.046;6.772;2023-12-22T02:25:55;2.10;;;0.60;;
5507;SDS011;2776;51.046;6.772;2023-12-22T02:28:30;4.13;;;1.20;;
5507;SDS011;2776;51.046;6.772;2023-12-22T02:31:01;1.67;;;0.70;;
5507;SDS011;2776;51.046;6.772;2023-12-22T02:33:35;4.77;;;1.63;;
5507;SDS011;2776;51.046;6.772;2023-12-22T02:36:04;1.53;;;0.73;;
5507;SDS011;2776;51.046;6.772;2023-12-22T02:38:35;2.27;;;0.93;;
5507;SDS011;2776;51.046;6.772;2023-12-22T02:41:03;2.67;;;0.97;;
5507;SDS011;2776;51.046;6.772;2023-12-22T02:43:30;5.57;;;0.83;;
5507;SDS011;2776;51.046;6.772;2023-12-22T02:45:58;4.33;;;1.07;;
5507;SDS011;2776;51.046;6.772;2023-12-22T02:48:25;3.53;;;1.13;;
5507;SDS011;2776;51.046;6.772;2023-12-22T02:50:51;6.23;;;0.70;;
5507;SDS011;2776;51.046;6.772;2023-12-22T02:53:18;4.13;;;1.07;;
5507;SDS011;2776;51.046;6.772;2023-12-22T02:55:46;6.23;;;0.73;;
5507;SDS011;2776;51.046;6.772;2023-12-22T02:58:13;5.23;;;1.20;;
5507;SDS011;2776;51.046;6.772;2023-12-22T03:00:39;1.43;;;0.60;;
5507;SDS011;2776;51.046;6.772;2023-12-22T03:03:06;1.70;;;0.53;;
5507;SDS011;2776;51.046;6.772;2023-12-22T03:05:33;2.33;;;0.77;;
5507;SDS011;2776;51.046;6.772;2023-12-22T03:08:00;4.97;;;0.63;;
5507;SDS011;2776;51.046;6.772;2023-12-22T03:10:28;9.20;;;1.27;;
5507;SDS011;2776;51.046;6.772;2023-12-22T03:12:56;0.80;;;0.50;;
5507;SDS011;2776;51.046;6.772;2023-12-22T03:15:23;8.40;;;0.83;;
5507;SDS011;2776;51.046;6.772;2023-12-22T03:17:50;3.80;;;0.90;;
5507;SDS011;2776;51.046;6.772;2023-12-22T03:20:17;2.33;;;0.90;;
5507;SDS011;2776;51.046;6.772;2023-12-22T03:22:44;5.33;;;1.10;;
5507;SDS011;2776;51.046;6.772;2023-12-22T03:25:10;2.63;;;1.00;;
5507;SDS011;2776;51.046;6.772;2023-12-22T03:27:37;2.83;;;1.13;;
5507;SDS011;2776;51.046;6.772;2023-12-22T03:30:06;2.57;;;0.60;;
5507;SDS011;2776;51.046;6.772;2023-12-22T03:32:33;6.03;;;0.77;;
5507;SDS011;2776;51.046;6.772;2023-12-22T03:35:00;7.63;;;1.40;;
5507;SDS011;2776;51.046;6.772;2023-12-22T03:37:27;6.70;;;1.20;;
5507;SDS011;2776;51.046;6.772;2023-12-22T03:39:53;6.27;;;0.93;;
5507;SDS011;2776;51.046;6.772;2023-12-22T03:42:20;5.00;;;1.03;;
5507;SDS011;2776;51.046;6.772;2023-12-22T03:44:47;7.47;;;1.17;;
5507;SDS011;2776;51.046;6.772;2023-12-22T03:47:15;6.63;;;0.90;;
5507;SDS011;2776;51.046;6.772;2023-12-22T03:49:42;3.67;;;1.23;;
5507;SDS011;2776;51.046;6.772;2023-12-22T03:52:09;10.70;;;1.47;;
5507;SDS011;2776;51.046;6.772;2023-12-22T03:54:35;5.20;;;0.77;;
5507;SDS011;2776;51.046;6.772;2023-12-22T03:57:02;10.40;;;1.07;;
5507;SDS011;2776;51.046;6.772;2023-12-22T03:59:29;7.80;;;1.00;;
5507;SDS011;2776;51.046;6.772;2023-12-22T04:01:56;5.27;;;1.57;;
5507;SDS011;2776;51.046;6.772;2023-12-22T04:04:27;6.97;;;1.20;;
5507;SDS011;2776;51.046;6.772;2023-12-22T04:06:54;5.33;;;0.70;;
5507;SDS011;2776;51.046;6.772;2023-12-22T04:09:20;7.60;;;0.90;;
5507;SDS011;2776;51.046;6.772;2023-12-22T04:11:47;5.03;;;1.03;;
5507;SDS011;2776;51.046;6.772;2023-12-22T04:14:14;6.80;;;1.30;;
5507;SDS011;2776;51.046;6.772;2023-12-22T04:16:41;3.80;;;0.73;;
5507;SDS011;2776;51.046;6.772;2023-12-22T04:19:08;5.63;;;1.17;;
5507;SDS011;2776;51.046;6.772;2023-12-22T04:21:36;2.87;;;0.83;;
5507;SDS011;2776;51.046;6.772;2023-12-22T04:24:03;3.17;;;0.70;;
5507;SDS011;2776;51.046;6.772;2023-12-22T04:26:30;3.27;;;0.80;;
5507;SDS011;2776;51.046;6.772;2023-12-22T04:28:57;5.10;;;1.40;;
5507;SDS011;2776;51.046;6.772;2023-12-22T04:31:23;2.50;;;0.73;;
5507;SDS011;2776;51.046;6.772;2023-12-22T04:33:50;7.83;;;1.07;;
5507;SDS011;2776;51.046;6.772;2023-12-22T04:36:17;3.07;;;0.63;;
5507;SDS011;2776;51.046;6.772;2023-12-22T04:38:45;4.47;;;0.57;;
5507;SDS011;2776;51.046;6.772;2023-12-22T04:41:12;4.73;;;1.40;;
5507;SDS011;2776;51.046;6.772;2023-12-22T04:43:38;6.87;;;1.00;;
5507;SDS011;2776;51.046;6.772;2023-12-22T04:46:05;8.30;;;0.70;;
5507;SDS011;2776;51.046;6.772;2023-12-22T04:48:32;6.57;;;1.10;;
5507;SDS011;2776;51.046;6.772;2023-12-22T04:50:59;2.47;;;1.20;;
5507;SDS011;2776;51.046;6.772;2023-12-22T04:53:25;4.37;;;0.60;;
5507;SDS011;2776;51.046;6.772;2023-12-22T04:55:53;1.23;;;0.90;;
5507;SDS011;2776;51.046;6.772;2023-12-22T04:58:20;5.30;;;1.00;;
5507;SDS011;2776;51.046;6.772;2023-12-22T05:00:47;3.77;;;0.87;;
5507;SDS011;2776;51.046;6.772;2023-12-22T05:03:14;6.27;;;1.03;;
5507;SDS011;2776;51.046;6.772;2023-12-22T05:05:41;4.77;;;0.63;;
5507;SDS011;2776;51.046;6.772;2023-12-22T05:08:08;1.53;;;0.90;;
5507;SDS011;2776;51.046;6.772;2023-12-22T05:10:34;8.27;;;1.30;;
5507;SDS011;2776;51.046;6.772;2023-12-22T05:13:03;6.17;;;1.73;;
5507;SDS011;2776;51.046;6.772;2023-12-22T05:15:29;3.80;;;0.93;;
5507;SDS011;2776;51.046;6.772;2023-12-22T05:17:56;7.07;;;1.63;;
5507;SDS011;2776;51.046;6.772;2023-12-22T05:20:23;5.07;;;1.07;;
5507;SDS011;2776;51.046;6.772;2023-12-22T05:22:49;5.07;;;1.37;;
5507;SDS011;2776;51.046;6.772;2023-12-22T05:25:16;6.43;;;1.00;;
5507;SDS011;2776;51.046;6.772;2023-12-22T05:27:43;5.97;;;1.00;;
5507;SDS011;2776;51.046;6.772;2023-12-22T05:30:12;4.70;;;1.27;;
5507;SDS011;2776;51.046;6.772;2023-12-22T05:32:39;5.07;;;1.10;;
5507;SDS011;2776;51.046;6.772;2023-12-22T05:35:06;3.60;;;0.80;;
5507;SDS011;2776;51.046;6.772;2023-12-22T05:37:35;3.97;;;1.23;;
5507;SDS011;2776;51.046;6.772;2023-12-22T05:40:02;3.47;;;1.03;;
5507;SDS011;2776;51.046;6.772;2023-12-22T05:42:30;1.67;;;1.10;;
5507;SDS011;2776;51.046;6.772;2023-12-22T05:44:57;4.57;;;1.10;;
5507;SDS011;2776;51.046;6.772;2023-12-22T05:47:25;4.30;;;1.20;;
5507;SDS011;2776;51.046;6.772;2023-12-22T05:49:51;6.30;;;1.50;;
5507;SDS011;2776;51.046;6.772;2023-12-22T05:52:18;4.50;;;0.97;;
5507;SDS011;2776;51.046;6.772;2023-12-22T05:54:45;3.07;;;0.83;;
5507;SDS011;2776;51.046;6.772;2023-12-22T05:57:11;3.80;;;0.90;;
5507;SDS011;2776;51.046;6.772;2023-12-22T05:59:38;5.80;;;1.37;;
5507;SDS011;2776;51.046;6.772;2023-12-22T06:02:05;3.73;;;0.90;;
5507;SDS011;2776;51.046;6.772;2023-12-22T06:04:33;1.70;;;0.40;;
5507;SDS011;2776;51.046;6.772;2023-12-22T06:07:00;3.30;;;0.63;;
5507;SDS011;2776;51.046;6.772;2023-12-22T06:09:27;10.70;;;1.20;;
5507;SDS011;2776;51.046;6.772;2023-12-22T06:11:54;3.80;;;1.23;;
5507;SDS011;2776;51.046;6.772;2023-12-22T06:14:20;6.20;;;1.10;;
5507;SDS011;2776;51.046;6.772;2023-12-22T06:16:47;5.07;;;1.00;;
5507;SDS011;2776;51.046;6.772;2023-12-22T06:19:14;4.80;;;0.90;;
5507;SDS011;2776;51.046;6.772;2023-12-22T06:21:43;6.10;;;1.30;;
5507;SDS011;2776;51.046;6.772;2023-12-22T06:24:09;3.70;;;1.40;;
5507;SDS011;2776;51.046;6.772;2023-12-22T06:26:36;6.07;;;0.90;;
5507;SDS011;2776;51.046;6.772;2023-12-22T06:29:03;2.40;;;0.73;;
5507;SDS011;2776;51.046;6.772;2023-12-22T06:31:29;3.83;;;1.20;;
5507;SDS011;2776;51.046;6.772;2023-12-22T06:33:56;3.40;;;0.87;;
5507;SDS011;2776;51.046;6.772;2023-12-22T06:36:27;4.43;;;0.90;;
5507;SDS011;2776;51.046;6.772;2023-12-22T06:38:55;5.80;;;1.07;;
5507;SDS011;2776;51.046;6.772;2023-12-22T06:41:23;3.47;;;1.00;;
5507;SDS011;2776;51.046;6.772;2023-12-22T06:43:50;6.83;;;1.57;;
5507;SDS011;2776;51.046;6.772;2023-12-22T06:46:18;4.67;;;1.30;;
5507;SDS011;2776;51.046;6.772;2023-12-22T06:48:46;1.73;;;0.60;;
5507;SDS011;2776;51.046;6.772;2023-12-22T06:51:19;2.57;;;0.80;;
5507;SDS011;2776;51.046;6.772;2023-12-22T06:53:46;0.40;;;0.40;;
5507;SDS011;2776;51.046;6.772;2023-12-22T06:56:18;1.00;;;0.23;;
5507;SDS011;2776;51.046;6.772;2023-12-22T06:58:46;0.30;;;0.30;;
5507;SDS011;2776;51.046;6.772;2023-12-22T07:01:17;0.87;;;0.53;;
5507;SDS011;2776;51.046;6.772;2023-12-22T07:03:44;3.00;;;0.70;;
5507;SDS011;2776;51.046;6.772;2023-12-22T07:06:11;3.27;;;0.90;;
5507;SDS011;2776;51.046;6.772;2023-12-22T07:08:38;1.13;;;0.53;;
5507;SDS011;2776;51.046;6.772;2023-12-22T07:11:06;1.70;;;0.50;;
5507;SDS011;2776;51.046;6.772;2023-12-22T07:13:34;1.40;;;0.53;;
5507;SDS011;2776;51.046;6.772;2023-12-22T07:16:01;1.07;;;0.60;;
5507;SDS011;2776;51.046;6.772;2023-12-22T07:18:28;0.73;;;0.57;;
5507;SDS011;2776;51.046;6.772;2023-12-22T07:20:55;2.43;;;0.87;;
5507;SDS011;2776;51.046;6.772;2023-12-22T07:23:22;5.10;;;0.93;;
5507;SDS011;2776;51.046;6.772;2023-12-22T07:25:49;4.73;;;0.50;;
5507;SDS011;2776;51.046;6.772;2023-12-22T07:28:16;0.57;;;0.40;;
5507;SDS011;2776;51.046;6.772;2023-12-22T07:30:44;1.57;;;0.37;;
5507;SDS011;2776;51.046;6.772;2023-12-22T07:33:11;2.70;;;0.80;;
5507;SDS011;2776;51.046;6.772;2023-12-22T07:35:37;4.73;;;0.73;;
5507;SDS011;2776;51.046;6.772;2023-12-22T07:38:04;2.00;;;0.50;;
5507;SDS011;2776;51.046;6.772;2023-12-22T07:40:31;2.77;;;0.50;;
5507;SDS011;2776;51.046;6.772;2023-12-22T07:42:58;1.50;;;0.77;;
5507;SDS011;2776;51.046;6.772;2023-12-22T07:45:24;3.77;;;0.80;;
5507;SDS011;2776;51.046;6.772;2023-12-22T07:47:53;3.60;;;0.90;;
5507;SDS011;2776;51.046;6.772;2023-12-22T07:50:19;2.43;;;0.67;;
5507;SDS011;2776;51.046;6.772;2023-12-22T07:52:46;11.47;;;1.97;;
5507;SDS011;2776;51.046;6.772;2023-12-22T07:55:13;13.63;;;3.27;;
5507;SDS011;2776;51.046;6.772;2023-12-22T07:57:40;5.53;;;1.70;;
5507;SDS011;2776;51.046;6.772;2023-12-22T08:00:07;9.17;;;2.10;;
5507;SDS011;2776;51.046;6.772;2023-12-22T08:02:35;10.70;;;2.57;;
5507;SDS011;2776;51.046;6.772;2023-12-22T08:05:03;2.67;;;1.57;;
5507;SDS011;2776;51.046;6.772;2023-12-22T08:07:30;13.00;;;2.60;;
5507;SDS011;2776;51.046;6.772;2023-12-22T08:09:57;4.53;;;1.37;;
5507;SDS011;2776;51.046;6.772;2023-12-22T08:12:24;8.53;;;2.00;;
5507;SDS011;2776;51.046;6.772;2023-12-22T08:14:51;9.90;;;1.63;;
5507;SDS011;2776;51.046;6.772;2023-12-22T08:17:17;12.83;;;1.97;;
5507;SDS011;2776;51.046;6.772;2023-12-22T08:19:44;6.37;;;2.17;;
5507;SDS011;2776;51.046;6.772;2023-12-22T08:22:12;9.47;;;1.60;;
5507;SDS011;2776;51.046;6.772;2023-12-22T08:24:39;10.00;;;2.43;;
5507;SDS011;2776;51.046;6.772;2023-12-22T08:27:06;14.90;;;2.73;;
5507;SDS011;2776;51.046;6.772;2023-12-22T08:29:33;14.90;;;2.60;;
5507;SDS011;2776;51.046;6.772;2023-12-22T08:32:00;10.40;;;2.67;;
5507;SDS011;2776;51.046;6.772;2023-12-22T08:34:27;8.43;;;1.80;;
5507;SDS011;2776;51.046;6.772;2023-12-22T08:36:54;8.00;;;2.77;;
5507;SDS011;2776;51.046;6.772;2023-12-22T08:39:22;14.83;;;2.67;;
5507;SDS011;2776;51.046;6.772;2023-12-22T08:41:50;21.07;;;2.80;;
5507;SDS011;2776;51.046;6.772;2023-12-22T08:44:17;7.70;;;2.13;;
5507;SDS011;2776;51.046;6.772;2023-12-22T08:46:44;6.40;;;1.73;;
5507;SDS011;2776;51.046;6.772;2023-12-22T08:49:10;15.73;;;2.40;;
5507;SDS011;2776;51.046;6.772;2023-12-22T08:51:37;9.50;;;1.93;;
5507;SDS011;2776;51.046;6.772;2023-12-22T08:54:04;10.93;;;2.37;;
5507;SDS011;2776;51.046;6.772;2023-12-22T08:56:32;9.47;;;2.43;;
5507;SDS011;2776;51.046;6.772;2023-12-22T08:59:00;19.40;;;3.53;;
5507;SDS011;2776;51.046;6.772;2023-12-22T09:01:27;11.07;;;2.07;;
5507;SDS011;2776;51.046;6.772;2023-12-22T09:03:53;9.93;;;1.87;;
5507;SDS011;2776;51.046;6.772;2023-12-22T09:06:20;11.43;;;1.93;;
5507;SDS011;2776;51.046;6.772;2023-12-22T09:08:49;11.13;;;2.80;;
5507;SDS011;2776;51.046;6.772;2023-12-22T09:11:17;15.70;;;2.27;;
5507;SDS011;2776;51.046;6.772;2023-12-22T09:13:47;9.80;;;2.63;;
5507;SDS011;2776;51.046;6.772;2023-12-22T09:16:13;10.17;;;2.33;;
5507;SDS011;2776;51.046;6.772;2023-12-22T09:18:46;6.67;;;1.43;;
5507;SDS011;2776;51.046;6.772;2023-12-22T09:21:12;8.40;;;2.30;;
5507;SDS011;2776;51.046;6.772;2023-12-22T09:23:39;8.20;;;1.80;;
5507;SDS011;2776;51.046;6.772;2023-12-22T09:26:09;14.33;;;2.27;;
5507;SDS011;2776;51.046;6.772;2023-12-22T09:28:36;8.37;;;1.60;;
5507;SDS011;2776;51.046;6.772;2023-12-22T09:31:04;4.33;;;1.70;;
5507;SDS011;2776;51.046;6.772;2023-12-22T09:33:32;8.10;;;1.43;;
5507;SDS011;2776;51.046;6.772;2023-12-22T09:35:59;9.90;;;1.80;;
5507;SDS011;2776;51.046;6.772;2023-12-22T09:38:26;6.40;;;2.00;;
5507;SDS011;2776;51.046;6.772;2023-12-22T09:40:52;9.60;;;2.43;;
5507;SDS011;2776;51.046;6.772;2023-12-22T09:43:21;10.53;;;2.00;;
5507;SDS011;2776;51.046;6.772;2023-12-22T09:45:48;6.50;;;1.80;;
5507;SDS011;2776;51.046;6.772;2023-12-22T09:48:17;7.13;;;1.67;;
5507;SDS011;2776;51.046;6.772;2023-12-22T09:50:52;8.47;;;1.30;;
5507;SDS011;2776;51.046;6.772;2023-12-22T09:53:19;4.50;;;1.40;;
5507;SDS011;2776;51.046;6.772;2023-12-22T09:55:46;9.50;;;1.93;;
5507;SDS011;2776;51.046;6.772;2023-12-22T09:58:15;10.97;;;1.73;;
5507;SDS011;2776;51.046;6.772;2023-12-22T10:00:42;4.07;;;1.17;;
5507;SDS011;2776;51.046;6.772;2023-12-22T10:03:10;3.53;;;1.87;;
5507;SDS011;2776;51.046;6.772;2023-12-22T10:05:40;3.93;;;1.20;;
5507;SDS011;2776;51.046;6.772;2023-12-22T10:08:06;6.40;;;1.43;;
5507;SDS011;2776;51.046;6.772;2023-12-22T10:10:35;7.60;;;1.67;;
5507;SDS011;2776;51.046;6.772;2023-12-22T10:13:03;1.97;;;0.80;;
5507;SDS011;2776;51.046;6.772;2023-12-22T10:15:34;3.10;;;1.27;;
5507;SDS011;2776;51.046;6.772;2023-12-22T10:18:02;2.60;;;1.03;;
5507;SDS011;2776;51.046;6.772;2023-12-22T10:20:29;6.33;;;1.30;;
5507;SDS011;2776;51.046;6.772;2023-12-22T10:22:57;3.03;;;0.93;;
5507;SDS011;2776;51.046;6.772;2023-12-22T10:25:27;3.40;;;0.93;;
5507;SDS011;2776;51.046;6.772;2023-12-22T10:27:54;4.53;;;0.80;;
5507;SDS011;2776;51.046;6.772;2023-12-22T10:30:21;1.03;;;0.83;;
5507;SDS011;2776;51.046;6.772;2023-12-22T10:32:49;2.23;;;1.10;;
5507;SDS011;2776;51.046;6.772;2023-12-22T10:35:17;2.00;;;0.70;;
5507;SDS011;2776;51.046;6.772;2023-12-22T10:37:45;3.47;;;1.00;;
5507;SDS011;2776;51.046;6.772;2023-12-22T10:40:13;1.50;;;1.07;;
5507;SDS011;2776;51.046;6.772;2023-12-22T10:42:41;2.03;;;0.80;;
5507;SDS011;2776;51.046;6.772;2023-12-22T10:45:08;0.70;;;0.70;;
5507;SDS011;2776;51.046;6.772;2023-12-22T10:47:35;1.17;;;0.93;;
5507;SDS011;2776;51.046;6.772;2023-12-22T10:50:04;1.57;;;0.90;;
5507;SDS011;2776;51.046;6.772;2023-12-22T10:52:31;3.93;;;1.10;;
5507;SDS011;2776;51.046;6.772;2023-12-22T10:54:58;2.30;;;0.80;;
5507;SDS011;2776;51.046;6.772;2023-12-22T10:57:27;1.37;;;0.60;;
5507;SDS011;2776;51.046;6.772;2023-12-22T10:59:54;1.07;;;0.73;;
5507;SDS011;2776;51.046;6.772;2023-12-22T11:02:23;1.70;;;0.87;;
5507;SDS011;2776;51.046;6.772;2023-12-22T11:04:55;0.90;;;0.73;;
5507;SDS011;2776;51.046;6.772;2023-12-22T11:07:25;1.00;;;0.90;;
5507;SDS011;2776;51.046;6.772;2023-12-22T11:09:56;1.10;;;0.90;;
5507;SDS011;2776;51.046;6.772;2023-12-22T11:12:28;1.17;;;0.97;;
5507;SDS011;2776;51.046;6.772;2023-12-22T11:14:57;2.20;;;0.80;;
5507;SDS011;2776;51.046;6.772;2023-12-22T11:17:24;5.67;;;0.90;;
5507;SDS011;2776;51.046;6.772;2023-12-22T11:19:54;0.67;;;0.67;;
5507;SDS011;2776;51.046;6.772;2023-12-22T11:22:22;2.30;;;0.90;;
5507;SDS011;2776;51.046;6.772;2023-12-22T11:24:50;2.30;;;1.07;;
5507;SDS011;2776;51.046;6.772;2023-12-22T11:27:17;3.10;;;1.10;;
5507;SDS011;2776;51.046;6.772;2023-12-22T11:29:46;3.70;;;0.90;;
5507;SDS011;2776;51.046;6.772;2023-12-22T11:32:14;2.47;;;0.90;;
5507;SDS011;2776;51.046;6.772;2023-12-22T11:34:42;0.93;;;0.87;;
5507;SDS011;2776;51.046;6.772;2023-12-22T11:37:09;1.63;;;1.23;;
5507;SDS011;2776;51.046;6.772;2023-12-22T11:39:38;2.40;;;1.07;;
5507;SDS011;2776;51.046;6.772;2023-12-22T11:42:05;1.10;;;0.90;;
5507;SDS011;2776;51.046;6.772;2023-12-22T11:44:34;2.90;;;1.30;;
5507;SDS011;2776;51.046;6.772;2023-12-22T11:47:06;0.90;;;0.90;;
5507;SDS011;2776;51.046;6.772;2023-12-22T11:49:34;1.07;;;0.90;;
5507;SDS011;2776;51.046;6.772;2023-12-22T11:52:12;2.83;;;1.00;;
5507;SDS011;2776;51.046;6.772;2023-12-22T11:54:45;1.93;;;0.87;;
5507;SDS011;2776;51.046;6.772;2023-12-22T12:00:01;1.30;;;0.97;;
5507;SDS011;2776;51.046;6.772;2023-12-22T12:02:32;3.57;;;1.10;;
5507;SDS011;2776;51.046;6.772;2023-12-22T12:05:00;1.17;;;0.60;;
5507;SDS011;2776;51.046;6.772;2023-12-22T12:07:40;0.80;;;0.73;;
5507;SDS011;2776;51.046;6.772;2023-12-22T12:10:10;2.20;;;0.50;;
5507;SDS011;2776;51.046;6.772;2023-12-22T12:12:38;4.33;;;0.80;;
5507;SDS011;2776;51.046;6.772;2023-12-22T12:15:08;0.63;;;0.63;;
5507;SDS011;2776;51.046;6.772;2023-12-22T12:17:41;1.83;;;0.80;;
5507;SDS011;2776;51.046;6.772;2023-12-22T12:20:09;3.03;;;0.50;;
5507;SDS011;2776;51.046;6.772;2023-12-22T12:22:37;0.60;;;0.60;;
5507;SDS011;2776;51.046;6.772;2023-12-22T12:25:08;3.03;;;0.77;;
5507;SDS011;2776;51.046;6.772;2023-12-22T12:27:36;1.10;;;0.60;;
5507;SDS011;2776;51.046;6.772;2023-12-22T12:30:09;1.63;;;0.60;;
5507;SDS011;2776;51.046;6.772;2023-12-22T12:32:38;1.83;;;0.73;;
5507;SDS011;2776;51.046;6.772;2023-12-22T12:35:07;6.17;;;1.23;;
5507;SDS011;2776;51.046;6.772;2023-12-22T12:37:34;3.00;;;0.57;;
5507;SDS011;2776;51.046;6.772;2023-12-22T12:40:03;3.20;;;0.73;;
5507;SDS011;2776;51.046;6.772;2023-12-22T12:42:33;1.30;;;0.60;;
5507;SDS011;2776;51.046;6.772;2023-12-22T12:45:03;5.93;;;0.67;;
5507;SDS011;2776;51.046;6.772;2023-12-22T12:47:30;0.57;;;0.57;;
5507;SDS011;2776;51.046;6.772;2023-12-22T12:49:58;0.83;;;0.40;;
5507;SDS011;2776;51.046;6.772;2023-12-22T12:52:25;1.60;;;0.60;;
5507;SDS011;2776;51.046;6.772;2023-12-22T12:54:52;1.70;;;0.40;;
5507;SDS011;2776;51.046;6.772;2023-12-22T12:57:19;1.20;;;0.90;;
5507;SDS011;2776;51.046;6.772;2023-12-22T12:59:46;1.27;;;0.60;;
5507;SDS011;2776;51.046;6.772;2023-12-22T13:02:13;2.20;;;0.77;;
5507;SDS011;2776;51.046;6.772;2023-12-22T13:04:41;0.40;;;0.40;;
5507;SDS011;2776;51.046;6.772;2023-12-22T13:07:10;4.43;;;0.93;;
5507;SDS011;2776;51.046;6.772;2023-12-22T13:09:38;0.80;;;0.47;;
5507;SDS011;2776;51.046;6.772;2023-12-22T13:12:07;0.40;;;0.40;;
5507;SDS011;2776;51.046;6.772;2023-12-22T13:14:34;3.43;;;0.53;;
5507;SDS011;2776;51.046;6.772;2023-12-22T13:17:01;0.90;;;0.50;;
5507;SDS011;2776;51.046;6.772;2023-12-22T13:19:28;3.17;;;0.40;;
5507;SDS011;2776;51.046;6.772;2023-12-22T13:21:55;2.13;;;0.60;;
5507;SDS011;2776;51.046;6.772;2023-12-22T13:24:23;3.70;;;0.87;;
5507;SDS011;2776;51.046;6.772;2023-12-22T13:26:58;2.03;;;0.90;;
5507;SDS011;2776;51.046;6.772;2023-12-22T13:29:26;2.87;;;0.50;;
5507;SDS011;2776;51.046;6.772;2023-12-22T13:31:53;3.47;;;0.63;;
5507;SDS011;2776;51.046;6.772;2023-12-22T13:34:21;1.47;;;0.47;;
5507;SDS011;2776;51.046;6.772;2023-12-22T13:36:47;2.27;;;0.90;;
5507;SDS011;2776;51.046;6.772;2023-12-22T13:39:14;1.13;;;0.60;;
5507;SDS011;2776;51.046;6.772;2023-12-22T13:41:42;1.77;;;0.70;;
5507;SDS011;2776;51.046;6.772;2023-12-22T13:44:11;2.40;;;0.60;;
5507;SDS011;2776;51.046;6.772;2023-12-22T13:46:39;1.60;;;0.83;;
5507;SDS011;2776;51.046;6.772;2023-12-22T13:49:08;1.00;;;0.53;;
5507;SDS011;2776;51.046;6.772;2023-12-22T13:51:39;1.07;;;0.60;;
5507;SDS011;2776;51.046;6.772;2023-12-22T13:54:06;1.80;;;0.60;;
5507;SDS011;2776;51.046;6.772;2023-12-22T13:56:33;1.40;;;0.70;;
5507;SDS011;2776;51.046;6.772;2023-12-22T13:59:03;1.90;;;0.80;;
5507;SDS011;2776;51.046;6.772;2023-12-22T14:01:29;2.23;;;0.57;;
5507;SDS011;2776;51.046;6.772;2023-12-22T14:03:57;5.93;;;0.63;;
5507;SDS011;2776;51.046;6.772;2023-12-22T14:06:24;0.97;;;0.87;;
5507;SDS011;2776;51.046;6.772;2023-12-22T14:08:51;1.37;;;0.50;;
5507;SDS011;2776;51.046;6.772;2023-12-22T14:11:18;4.00;;;0.80;;
5507;SDS011;2776;51.046;6.772;2023-12-22T14:13:44;3.20;;;0.53;;
5507;SDS011;2776;51.046;6.772;2023-12-22T14:16:12;1.80;;;0.57;;
5507;SDS011;2776;51.046;6.772;2023-12-22T14:18:40;0.90;;;0.60;;
5507;SDS011;2776;51.046;6.772;2023-12-22T14:21:06;1.60;;;0.70;;
5507;SDS011;2776;51.046;6.772;2023-12-22T14:23:33;4.90;;;0.77;;
5507;SDS011;2776;51.046;6.772;2023-12-22T14:26:00;4.70;;;0.73;;
5507;SDS011;2776;51.046;6.772;2023-12-22T14:28:27;1.10;;;0.57;;
5507;SDS011;2776;51.046;6.772;2023-12-22T14:30:53;4.33;;;1.07;;
5507;SDS011;2776;51.046;6.772;2023-12-22T14:33:21;3.40;;;1.03;;
5507;SDS011;2776;51.046;6.772;2023-12-22T14:35:48;5.37;;;0.90;;
5507;SDS011;2776;51.046;6.772;2023-12-22T14:38:15;2.13;;;0.57;;
5507;SDS011;2776;51.046;6.772;2023-12-22T14:40:41;4.90;;;0.63;;
5507;SDS011;2776;51.046;6.772;2023-12-22T14:43:08;4.50;;;0.50;;
5507;SDS011;2776;51.046;6.772;2023-12-22T14:45:35;0.50;;;0.50;;
5507;SDS011;2776;51.046;6.772;2023-12-22T14:48:02;2.43;;;0.40;;
5507;SDS011;2776;51.046;6.772;2023-12-22T14:50:30;1.70;;;0.63;;
5507;SDS011;2776;51.046;6.772;2023-12-22T14:52:57;3.30;;;0.63;;
5507;SDS011;2776;51.046;6.772;2023-12-22T14:55:24;1.90;;;0.50;;
5507;SDS011;2776;51.046;6.772;2023-12-22T14:57:51;0.40;;;0.40;;
5507;SDS011;2776;51.046;6.772;2023-12-22T15:00:18;2.10;;;0.73;;
5507;SDS011;2776;51.046;6.772;2023-12-22T15:02:45;2.57;;;0.60;;
5507;SDS011;2776;51.046;6.772;2023-12-22T15:05:11;0.93;;;0.70;;
5507;SDS011;2776;51.046;6.772;2023-12-22T15:07:39;2.20;;;0.50;;
5507;SDS011;2776;51.046;6.772;2023-12-22T15:10:06;1.77;;;0.60;;
5507;SDS011;2776;51.046;6.772;2023-12-22T15:12:34;1.90;;;0.60;;
5507;SDS011;2776;51.046;6.772;2023-12-22T15:15:02;1.97;;;0.30;;
5507;SDS011;2776;51.046;6.772;2023-12-22T15:17:30;3.90;;;0.50;;
5507;SDS011;2776;51.046;6.772;2023-12-22T15:19:56;0.73;;;0.37;;